createdAt,value
2018-02-07T00:01:29.930Z,-5.50
2018-02-07T00:03:57.509Z,-5.60
2018-02-07T00:06:25.131Z,-5.60
2018-02-07T00:08:53.501Z,-5.70
2018-02-07T00:11:21.155Z,-5.70
2018-02-07T00:13:48.805Z,-5.70
2018-02-07T00:16:16.378Z,-5.70
2018-02-07T00:18:43.990Z,-5.60
2018-02-07T00:21:11.646Z,-5.60
2018-02-07T00:23:39.220Z,-5.60
2018-02-07T00:26:06.789Z,-5.50
2018-02-07T00:28:34.398Z,-5.50
2018-02-07T00:31:01.963Z,-5.60
2018-02-07T00:33:29.571Z,-5.60
2018-02-07T00:35:57.181Z,-5.60
2018-02-07T00:38:24.793Z,-5.60
2018-02-07T00:40:52.370Z,-5.60
2018-02-07T00:43:19.949Z,-5.70
2018-02-07T00:45:47.548Z,-5.70
2018-02-07T00:48:15.118Z,-5.80
2018-02-07T00:50:42.729Z,-5.80
2018-02-07T00:53:10.295Z,-5.80
2018-02-07T00:55:37.862Z,-5.80
2018-02-07T00:58:05.470Z,-5.80
2018-02-07T01:00:33.081Z,-5.80
2018-02-07T01:03:00.686Z,-5.70
2018-02-07T01:05:28.263Z,-5.60
2018-02-07T01:07:55.866Z,-5.70
2018-02-07T01:10:23.441Z,-5.70
2018-02-07T01:12:51.062Z,-5.80
2018-02-07T01:15:18.630Z,-5.80
2018-02-07T01:17:46.196Z,-5.80
2018-02-07T01:20:13.827Z,-5.80
2018-02-07T01:22:41.392Z,-5.80
2018-02-07T01:25:08.962Z,-5.70
2018-02-07T01:27:36.557Z,-5.80
2018-02-07T01:30:04.176Z,-5.80
2018-02-07T01:32:31.745Z,-5.90
2018-02-07T01:34:59.349Z,-5.90
2018-02-07T01:37:27.682Z,-6.00
2018-02-07T01:39:55.294Z,-6.00
2018-02-07T01:42:22.905Z,-6.00
2018-02-07T01:44:50.511Z,-6.00
2018-02-07T01:47:18.081Z,-6.10
2018-02-07T01:49:45.699Z,-6.10
2018-02-07T01:52:13.266Z,-6.20
2018-02-07T01:54:40.834Z,-6.20
2018-02-07T01:57:08.435Z,-6.10
2018-02-07T01:59:36.043Z,-6.10
2018-02-07T02:02:03.613Z,-6.00
2018-02-07T02:04:31.224Z,-5.90
2018-02-07T02:06:58.791Z,-5.90
2018-02-07T02:09:26.371Z,-5.90
2018-02-07T02:11:54.006Z,-5.90
2018-02-07T02:14:21.578Z,-5.80
2018-02-07T02:16:49.158Z,-5.80
2018-02-07T02:19:16.771Z,-5.80
2018-02-07T02:21:44.378Z,-5.70
2018-02-07T02:24:11.948Z,-5.70
2018-02-07T02:26:39.549Z,-5.80
2018-02-07T02:29:07.159Z,-5.80
2018-02-07T02:31:34.729Z,-5.80
2018-02-07T02:34:02.323Z,-5.80
2018-02-07T02:36:39.540Z,-5.80
2018-02-07T02:39:07.153Z,-5.80
2018-02-07T02:41:34.721Z,-5.80
2018-02-07T02:44:02.326Z,-5.80
2018-02-07T02:46:29.931Z,-5.90
2018-02-07T02:48:57.501Z,-6.00
2018-02-07T02:51:25.107Z,-6.00
2018-02-07T02:53:52.683Z,-6.00
2018-02-07T02:56:20.290Z,-6.10
2018-02-07T02:58:47.885Z,-6.10
2018-02-07T03:01:15.486Z,-6.20
2018-02-07T03:03:43.096Z,-6.20
2018-02-07T03:06:10.718Z,-6.20
2018-02-07T03:08:38.290Z,-6.30
2018-02-07T03:11:05.859Z,-6.30
2018-02-07T03:13:33.465Z,-6.20
2018-02-07T03:16:01.043Z,-6.10
2018-02-07T03:18:28.651Z,-6.10
2018-02-07T03:20:56.284Z,-6.10
2018-02-07T03:23:23.847Z,-6.10
2018-02-07T03:25:51.456Z,-6.10
2018-02-07T03:28:19.035Z,-6.10
2018-02-07T03:30:46.637Z,-6.20
2018-02-07T03:33:14.205Z,-6.30
2018-02-07T03:35:41.814Z,-6.40
2018-02-07T03:38:09.384Z,-6.30
2018-02-07T03:40:36.991Z,-6.20
2018-02-07T03:43:04.567Z,-6.20
2018-02-07T03:45:32.142Z,-6.20
2018-02-07T03:48:00.505Z,-6.40
2018-02-07T03:50:28.086Z,-6.40
2018-02-07T03:52:55.682Z,-6.30
2018-02-07T03:55:23.295Z,-6.20
2018-02-07T03:57:51.651Z,-6.20
2018-02-07T04:00:19.269Z,-6.20
2018-02-07T04:02:46.842Z,-6.20
2018-02-07T04:05:14.415Z,-6.20
2018-02-07T04:07:42.023Z,-6.10
2018-02-07T04:10:10.616Z,-6.00
2018-02-07T04:12:38.178Z,-6.00
2018-02-07T04:15:06.515Z,-6.10
2018-02-07T04:17:34.126Z,-6.10
2018-02-07T04:20:01.707Z,-6.00
2018-02-07T04:22:29.276Z,-6.00
2018-02-07T04:24:56.873Z,-5.90
2018-02-07T04:27:24.482Z,-5.80
2018-02-07T04:29:52.096Z,-5.80
2018-02-07T04:32:19.702Z,-5.70
2018-02-07T04:34:47.319Z,-5.80
2018-02-07T04:37:14.897Z,-5.70
2018-02-07T04:39:43.274Z,-5.80
2018-02-07T04:42:11.649Z,-5.80
2018-02-07T04:44:39.997Z,-5.80
2018-02-07T04:47:07.607Z,-5.80
2018-02-07T04:49:35.173Z,-5.70
2018-02-07T04:52:02.784Z,-5.70
2018-02-07T04:54:30.357Z,-5.70
2018-02-07T04:56:57.969Z,-5.70
2018-02-07T04:59:25.547Z,-5.70
2018-02-07T05:01:53.162Z,-5.80
2018-02-07T05:04:21.507Z,-5.70
2018-02-07T05:06:49.114Z,-5.70
2018-02-07T05:09:16.681Z,-5.70
2018-02-07T05:11:44.291Z,-5.70
2018-02-07T05:14:11.857Z,-5.70
2018-02-07T05:16:39.464Z,-5.60
2018-02-07T05:19:07.047Z,-5.70
2018-02-07T05:21:34.650Z,-5.80
2018-02-07T05:24:02.218Z,-5.80
2018-02-07T05:26:29.836Z,-5.80
2018-02-07T05:28:57.442Z,-5.80
2018-02-07T05:31:25.063Z,-5.70
2018-02-07T05:33:52.633Z,-5.70
2018-02-07T05:36:20.203Z,-5.80
2018-02-07T05:38:47.807Z,-5.90
2018-02-07T05:41:16.144Z,-6.10
2018-02-07T05:43:43.749Z,-6.20
2018-02-07T05:46:11.318Z,-6.10
2018-02-07T05:48:38.891Z,-6.20
2018-02-07T05:51:06.502Z,-6.10
2018-02-07T05:53:34.097Z,-6.10
2018-02-07T05:56:01.699Z,-6.00
2018-02-07T05:58:29.272Z,-6.00
2018-02-07T06:00:56.885Z,-5.90
2018-02-07T06:03:24.460Z,-5.90
2018-02-07T06:05:52.026Z,-5.80
2018-02-07T06:08:19.627Z,-5.80
2018-02-07T06:10:47.197Z,-5.70
2018-02-07T06:13:15.578Z,-5.60
2018-02-07T06:15:43.914Z,-5.70
2018-02-07T06:18:11.517Z,-5.70
2018-02-07T06:20:39.089Z,-5.70
2018-02-07T06:23:06.702Z,-5.80
2018-02-07T06:25:34.274Z,-5.90
2018-02-07T06:28:01.883Z,-5.80
2018-02-07T06:30:29.490Z,-5.90
2018-02-07T06:32:57.054Z,-6.00
2018-02-07T06:35:24.673Z,-6.10
2018-02-07T06:37:52.256Z,-6.30
2018-02-07T06:40:19.873Z,-6.40
2018-02-07T06:42:47.450Z,-6.60
2018-02-07T06:45:15.020Z,-6.70
2018-02-07T06:47:42.636Z,-6.80
2018-02-07T06:50:10.201Z,-6.80
2018-02-07T06:52:37.773Z,-6.90
2018-02-07T06:55:06.155Z,-6.90
2018-02-07T06:57:33.741Z,-6.90
2018-02-07T07:00:01.351Z,-6.90
2018-02-07T07:02:28.913Z,-6.80
2018-02-07T07:04:56.521Z,-6.80
2018-02-07T07:07:24.133Z,-6.70
2018-02-07T07:09:51.702Z,-6.60
2018-02-07T07:12:19.324Z,-6.60
2018-02-07T07:14:46.899Z,-6.60
2018-02-07T07:17:14.466Z,-6.60
2018-02-07T07:19:42.087Z,-6.40
2018-02-07T07:22:09.706Z,-6.40
2018-02-07T07:24:37.419Z,-6.50
2018-02-07T07:27:05.081Z,-6.50
2018-02-07T07:29:32.694Z,-6.50
2018-02-07T07:32:00.276Z,-6.40
2018-02-07T07:34:27.885Z,-6.40
2018-02-07T07:36:55.454Z,-6.40
2018-02-07T07:39:23.081Z,-6.30
2018-02-07T07:41:50.645Z,-6.20
2018-02-07T07:44:18.227Z,-6.00
2018-02-07T07:46:45.829Z,-5.90
2018-02-07T07:49:13.436Z,-5.90
2018-02-07T07:51:41.003Z,-5.70
2018-02-07T07:54:08.605Z,-5.70
2018-02-07T07:56:36.184Z,-5.70
2018-02-07T07:59:04.584Z,-5.70
2018-02-07T08:01:32.152Z,-5.70
2018-02-07T08:03:59.767Z,-5.70
2018-02-07T08:06:27.342Z,-5.70
2018-02-07T08:08:54.950Z,-5.60
2018-02-07T08:11:22.565Z,-5.50
2018-02-07T08:13:50.138Z,-5.50
2018-02-07T08:16:19.104Z,-5.40
2018-02-07T08:18:46.706Z,-5.40
2018-02-07T08:21:14.620Z,-5.30
2018-02-07T08:23:42.254Z,-5.30
2018-02-07T08:26:09.858Z,-5.30
2018-02-07T08:28:37.469Z,-5.20
2018-02-07T08:31:05.058Z,-5.00
2018-02-07T08:33:32.663Z,-4.90
2018-02-07T08:36:01.002Z,-4.70
2018-02-07T08:38:28.621Z,-4.80
2018-02-07T08:40:56.191Z,-4.60
2018-02-07T08:43:23.761Z,-4.50
2018-02-07T08:45:51.377Z,-4.40
2018-02-07T08:48:18.999Z,-4.30
2018-02-07T08:50:46.580Z,-4.20
2018-02-07T08:53:14.154Z,-4.00
2018-02-07T08:55:41.758Z,-4.00
2018-02-07T08:58:09.330Z,-3.90
2018-02-07T09:00:36.934Z,-3.90
2018-02-07T09:03:04.498Z,-3.80
2018-02-07T09:05:32.388Z,-3.70
2018-02-07T09:08:00.734Z,-3.50
2018-02-07T09:10:28.314Z,-3.50
2018-02-07T09:12:55.928Z,-3.40
2018-02-07T09:15:23.538Z,-3.40
2018-02-07T09:17:51.122Z,-3.30
2018-02-07T09:20:18.692Z,-3.30
2018-02-07T09:22:46.294Z,-3.20
2018-02-07T09:25:13.886Z,-3.10
2018-02-07T09:27:42.218Z,-3.00
2018-02-07T09:30:09.830Z,-3.00
2018-02-07T09:32:37.398Z,-2.90
2018-02-07T09:35:04.975Z,-2.90
2018-02-07T09:37:32.688Z,-2.80
2018-02-07T09:40:00.256Z,-2.70
2018-02-07T09:42:27.894Z,-2.60
2018-02-07T09:44:55.503Z,-2.50
2018-02-07T09:47:23.112Z,-2.50
2018-02-07T09:49:50.725Z,-2.40
2018-02-07T09:52:18.304Z,-2.30
2018-02-07T09:54:45.877Z,-2.30
2018-02-07T09:57:13.526Z,-2.30
2018-02-07T09:59:41.089Z,-2.20
2018-02-07T10:02:08.698Z,-2.10
2018-02-07T10:04:36.306Z,-2.10
2018-02-07T10:07:03.877Z,-2.00
2018-02-07T10:09:31.474Z,-2.00
2018-02-07T10:11:59.086Z,-2.00
2018-02-07T10:14:26.658Z,-2.00
2018-02-07T10:16:54.222Z,-1.90
2018-02-07T10:19:21.826Z,-1.80
2018-02-07T10:21:49.391Z,-1.80
2018-02-07T10:24:17.016Z,-1.70
2018-02-07T10:26:44.582Z,-1.70
2018-02-07T10:29:12.162Z,-1.60
2018-02-07T10:31:39.785Z,-1.50
2018-02-07T10:34:08.122Z,-1.50
2018-02-07T10:36:35.695Z,-1.50
2018-02-07T10:39:04.067Z,-1.40
2018-02-07T10:41:31.684Z,-1.40
2018-02-07T10:43:59.250Z,-1.40
2018-02-07T10:46:26.850Z,-1.40
2018-02-07T10:48:54.416Z,-1.30
2018-02-07T10:51:22.038Z,-1.30
2018-02-07T10:53:49.611Z,-1.30
2018-02-07T10:56:17.179Z,-1.30
2018-02-07T10:58:44.789Z,-1.20
2018-02-07T11:01:12.398Z,-1.10
2018-02-07T11:03:40.003Z,-1.10
2018-02-07T11:06:07.612Z,-1.10
2018-02-07T11:08:35.182Z,-1.10
2018-02-07T11:11:02.798Z,-1.10
2018-02-07T11:13:30.378Z,-1.10
2018-02-07T11:15:57.980Z,-1.00
2018-02-07T11:18:25.587Z,-1.10
2018-02-07T11:20:53.162Z,-1.00
2018-02-07T11:23:20.757Z,-1.00
2018-02-07T11:25:48.361Z,-1.00
2018-02-07T11:28:15.964Z,-1.00
2018-02-07T11:30:43.539Z,-1.00
2018-02-07T11:33:11.110Z,-1.00
2018-02-07T11:35:38.722Z,-1.00
2018-02-07T11:38:06.298Z,-1.00
2018-02-07T11:40:33.881Z,-1.00
2018-02-07T11:43:01.498Z,-1.00
2018-02-07T11:45:29.177Z,-1.00
2018-02-07T11:47:56.815Z,-0.90
2018-02-07T11:50:24.687Z,-0.90
2018-02-07T11:52:52.286Z,-0.90
2018-02-07T11:55:19.944Z,-0.80
2018-02-07T11:57:49.184Z,-0.80
2018-02-07T12:00:17.518Z,-0.80
2018-02-07T12:02:45.199Z,-0.80
2018-02-07T12:05:12.802Z,-0.80
2018-02-07T12:07:40.393Z,-0.80
2018-02-07T12:10:07.990Z,-0.80
2018-02-07T12:12:35.570Z,-0.80
2018-02-07T12:15:03.193Z,-0.80
2018-02-07T12:17:30.794Z,-0.80
2018-02-07T12:19:58.412Z,-0.70
2018-02-07T12:22:25.995Z,-0.70
2018-02-07T12:24:53.598Z,-0.60
2018-02-07T12:27:21.163Z,-0.60
2018-02-07T12:29:48.763Z,-0.60
2018-02-07T12:32:16.393Z,-0.60
2018-02-07T12:34:43.971Z,-0.60
2018-02-07T12:37:11.543Z,-0.60
2018-02-07T12:39:39.152Z,-0.50
2018-02-07T12:42:06.763Z,-0.60
2018-02-07T12:44:34.370Z,-0.50
2018-02-07T12:47:01.970Z,-0.50
2018-02-07T12:49:29.570Z,-0.50
2018-02-07T12:51:57.199Z,-0.50
2018-02-07T12:54:25.015Z,-0.40
2018-02-07T12:56:53.381Z,-0.40
2018-02-07T12:59:20.982Z,-0.40
2018-02-07T13:01:48.564Z,-0.40
2018-02-07T13:04:16.165Z,-0.40
2018-02-07T13:06:43.722Z,-0.40
2018-02-07T13:09:11.320Z,-0.40
2018-02-07T13:11:38.926Z,-0.40
2018-02-07T13:14:06.513Z,-0.40
2018-02-07T13:16:34.113Z,-0.40
2018-02-07T13:19:01.715Z,-0.30
2018-02-07T13:21:29.313Z,-0.30
2018-02-07T13:23:56.912Z,-0.30
2018-02-07T13:26:24.483Z,-0.30
2018-02-07T13:28:52.073Z,-0.30
2018-02-07T13:31:19.648Z,-0.30
2018-02-07T13:33:47.308Z,-0.30
2018-02-07T13:36:14.873Z,-0.30
2018-02-07T13:38:43.273Z,-0.30
2018-02-07T13:41:10.845Z,-0.30
2018-02-07T13:43:38.435Z,-0.20
2018-02-07T13:46:05.998Z,0.00
2018-02-07T13:48:33.595Z,0.00
2018-02-07T13:51:01.153Z,0.00
2018-02-07T13:53:29.524Z,0.00
2018-02-07T13:55:57.883Z,0.00
2018-02-07T13:58:25.485Z,0.00
2018-02-07T14:00:53.092Z,0.10
2018-02-07T14:03:21.580Z,0.10
2018-02-07T14:05:49.128Z,0.10
2018-02-07T14:08:16.743Z,0.00
2018-02-07T14:10:45.064Z,0.00
2018-02-07T14:13:12.633Z,0.00
2018-02-07T14:15:40.249Z,0.00
2018-02-07T14:18:07.814Z,-0.10
2018-02-07T14:20:35.428Z,-0.10
2018-02-07T14:23:03.020Z,-0.20
2018-02-07T14:25:31.355Z,0.00
2018-02-07T14:27:59.018Z,0.00
2018-02-07T14:30:27.043Z,0.10
2018-02-07T14:32:54.680Z,0.20
2018-02-07T14:35:22.288Z,0.20
2018-02-07T14:37:49.863Z,0.10
2018-02-07T14:40:17.475Z,0.00
2018-02-07T14:42:45.070Z,-0.10
2018-02-07T14:45:12.644Z,-0.10
2018-02-07T14:47:40.245Z,-0.10
2018-02-07T14:50:07.852Z,0.00
2018-02-07T14:52:35.463Z,0.00
2018-02-07T14:55:03.050Z,0.00
2018-02-07T14:57:31.423Z,-0.10
2018-02-07T14:59:59.803Z,-0.10
2018-02-07T15:02:28.174Z,-0.10
2018-02-07T15:04:55.751Z,-0.10
2018-02-07T15:07:23.358Z,-0.10
2018-02-07T15:09:50.914Z,-0.20
2018-02-07T15:12:18.501Z,-0.20
2018-02-07T15:14:46.107Z,-0.20
2018-02-07T15:17:13.679Z,-0.30
2018-02-07T15:19:41.278Z,-0.40
2018-02-07T15:22:08.887Z,-0.40
2018-02-07T15:24:36.476Z,-0.50
2018-02-07T15:27:04.111Z,-0.60
2018-02-07T15:29:32.595Z,-0.60
2018-02-07T15:32:00.160Z,-0.60
2018-02-07T15:34:27.754Z,-0.60
2018-02-07T15:36:55.321Z,-0.50
2018-02-07T15:39:22.927Z,-0.60
2018-02-07T15:41:50.499Z,-0.50
2018-02-07T15:44:18.128Z,-0.50
2018-02-07T15:46:45.693Z,-0.60
2018-02-07T15:49:13.262Z,-0.60
2018-02-07T15:51:41.629Z,-0.70
2018-02-07T15:54:09.187Z,-0.70
2018-02-07T15:56:36.838Z,-0.70
2018-02-07T15:59:04.404Z,-0.80
2018-02-07T16:01:32.292Z,-0.90
2018-02-07T16:03:59.907Z,-1.00
2018-02-07T16:06:29.127Z,-1.10
2018-02-07T16:08:56.699Z,-1.10
2018-02-07T16:11:24.275Z,-1.10
2018-02-07T16:13:51.873Z,-1.20
2018-02-07T16:16:19.446Z,-1.30
2018-02-07T16:18:47.049Z,-1.30
2018-02-07T16:21:14.627Z,-1.40
2018-02-07T16:23:42.995Z,-1.50
2018-02-07T16:26:10.572Z,-1.50
2018-02-07T16:28:38.207Z,-1.50
2018-02-07T16:31:05.811Z,-1.60
2018-02-07T16:33:33.382Z,-1.70
2018-02-07T16:36:01.008Z,-1.70
2018-02-07T16:38:28.593Z,-1.70
2018-02-07T16:40:56.211Z,-1.70
2018-02-07T16:43:23.819Z,-1.70
2018-02-07T16:45:51.396Z,-1.80
2018-02-07T16:48:19.011Z,-1.80
2018-02-07T16:50:47.381Z,-1.90
2018-02-07T16:53:14.953Z,-1.90
2018-02-07T16:55:42.569Z,-1.90
2018-02-07T16:58:10.133Z,-1.90
2018-02-07T17:00:37.698Z,-1.90
2018-02-07T17:03:05.311Z,-2.00
2018-02-07T17:05:32.933Z,-2.00
2018-02-07T17:08:00.510Z,-2.10
2018-02-07T17:10:28.139Z,-2.30
2018-02-07T17:12:55.714Z,-2.40
2018-02-07T17:15:23.288Z,-2.60
2018-02-07T17:17:50.882Z,-2.80
2018-02-07T17:20:18.464Z,-3.00
2018-02-07T17:22:46.067Z,-3.00
2018-02-07T17:25:13.634Z,-3.10
2018-02-07T17:27:41.235Z,-3.10
2018-02-07T17:30:08.803Z,-3.20
2018-02-07T17:32:36.529Z,-3.30
2018-02-07T17:35:04.138Z,-3.40
2018-02-07T17:37:31.746Z,-3.50
2018-02-07T17:39:59.318Z,-3.50
2018-02-07T17:42:27.725Z,-3.60
2018-02-07T17:44:55.332Z,-3.70
2018-02-07T17:47:22.914Z,-3.70
2018-02-07T17:49:51.260Z,-3.80
2018-02-07T17:52:18.861Z,-3.90
2018-02-07T17:54:46.437Z,-3.90
2018-02-07T17:57:14.031Z,-4.00
2018-02-07T17:59:42.502Z,-4.20
2018-02-07T18:02:10.075Z,-4.20
2018-02-07T18:04:37.649Z,-4.30
2018-02-07T18:07:05.244Z,-4.30
2018-02-07T18:09:32.850Z,-4.30
2018-02-07T18:12:00.418Z,-4.40
2018-02-07T18:14:28.021Z,-4.40
2018-02-07T18:16:56.387Z,-4.50
2018-02-07T18:19:24.002Z,-4.50
2018-02-07T18:21:52.330Z,-4.50
2018-02-07T18:24:19.934Z,-4.50
2018-02-07T18:26:47.549Z,-4.50
2018-02-07T18:29:15.131Z,-4.60
2018-02-07T18:31:42.819Z,-4.70
2018-02-07T18:34:10.410Z,-4.70
2018-02-07T18:36:38.060Z,-4.80
2018-02-07T18:39:05.678Z,-4.80
2018-02-07T18:41:34.707Z,-4.90
2018-02-07T18:44:02.663Z,-4.90
2018-02-07T18:46:30.642Z,-4.90
2018-02-07T18:48:58.719Z,-4.90
2018-02-07T18:51:26.675Z,-4.80
2018-02-07T18:53:54.829Z,-4.80
2018-02-07T18:56:23.051Z,-4.80
2018-02-07T18:58:52.042Z,-4.80
2018-02-07T19:01:21.584Z,-4.80
2018-02-07T19:03:49.506Z,-4.80
2018-02-07T19:06:17.896Z,-4.80
2018-02-07T19:08:47.831Z,-4.90
2018-02-07T19:11:17.475Z,-4.90
2018-02-07T19:13:46.108Z,-4.90
2018-02-07T19:16:14.486Z,-4.90
2018-02-07T19:18:43.482Z,-4.90
2018-02-07T19:21:13.052Z,-5.00
2018-02-07T19:23:42.451Z,-5.00
2018-02-07T19:26:10.770Z,-5.10
2018-02-07T19:28:38.378Z,-5.20
2018-02-07T19:31:05.998Z,-5.30
2018-02-07T19:33:33.570Z,-5.30
2018-02-07T19:36:01.138Z,-5.40
2018-02-07T19:38:28.752Z,-5.40
2018-02-07T19:40:56.330Z,-5.40
2018-02-07T19:43:23.931Z,-5.50
2018-02-07T19:45:51.502Z,-5.50
2018-02-07T19:48:19.104Z,-5.40
2018-02-07T19:50:46.674Z,-5.50
2018-02-07T19:53:14.974Z,-5.50
2018-02-07T19:55:42.576Z,-5.60
2018-02-07T19:58:10.148Z,-5.70
2018-02-07T20:00:38.535Z,-5.70
2018-02-07T20:03:06.101Z,-5.70
2018-02-07T20:05:33.716Z,-5.80
2018-02-07T20:08:01.295Z,-5.80
2018-02-07T20:10:28.893Z,-5.80
2018-02-07T20:12:56.509Z,-5.90
2018-02-07T20:15:24.082Z,-5.90
2018-02-07T20:17:51.651Z,-5.90
2018-02-07T20:20:20.014Z,-5.90
2018-02-07T20:22:48.384Z,-5.90
2018-02-07T20:25:15.973Z,-5.90
2018-02-07T20:27:43.586Z,-5.90
2018-02-07T20:30:11.154Z,-5.90
2018-02-07T20:32:38.727Z,-5.90
2018-02-07T20:35:06.323Z,-5.90
2018-02-07T20:37:33.889Z,-5.90
2018-02-07T20:40:01.489Z,-5.90
2018-02-07T20:42:29.468Z,-5.90
2018-02-07T20:44:57.037Z,-5.90
2018-02-07T20:47:24.606Z,-5.90
2018-02-07T20:49:52.197Z,-5.90
2018-02-07T20:52:19.775Z,-5.90
2018-02-07T20:54:47.402Z,-5.90
2018-02-07T20:57:14.972Z,-6.00
2018-02-07T20:59:43.305Z,-6.10
2018-02-07T21:02:10.910Z,-6.10
2018-02-07T21:04:38.484Z,-6.10
2018-02-07T21:07:06.081Z,-6.10
2018-02-07T21:09:33.657Z,-6.00
2018-02-07T21:12:01.261Z,-6.00
2018-02-07T21:14:28.864Z,-6.10
2018-02-07T21:16:56.474Z,-6.10
2018-02-07T21:19:24.846Z,-6.20
2018-02-07T21:21:53.186Z,-6.30
2018-02-07T21:24:20.788Z,-6.30
2018-02-07T21:26:48.359Z,-6.30
2018-02-07T21:29:15.966Z,-6.40
2018-02-07T21:31:43.533Z,-6.40
2018-02-07T21:34:11.127Z,-6.40
2018-02-07T21:36:39.493Z,-6.30
2018-02-07T21:39:07.056Z,-6.30
2018-02-07T21:41:34.673Z,-6.30
2018-02-07T21:44:02.248Z,-6.30
2018-02-07T21:46:29.809Z,-6.20
2018-02-07T21:48:57.405Z,-6.30
2018-02-07T21:51:27.059Z,-6.40
2018-02-07T21:53:54.676Z,-6.50
2018-02-07T21:56:22.234Z,-6.50
2018-02-07T21:58:49.825Z,-6.60
2018-02-07T22:01:17.392Z,-6.50
2018-02-07T22:03:45.011Z,-6.40
2018-02-07T22:06:13.812Z,-6.30
2018-02-07T22:08:42.095Z,-6.20
2018-02-07T22:11:10.326Z,-6.30
2018-02-07T22:13:38.126Z,-6.40
2018-02-07T22:16:05.835Z,-6.50
2018-02-07T22:18:33.432Z,-6.60
2018-02-07T22:21:00.991Z,-6.70
2018-02-07T22:23:28.606Z,-6.80
2018-02-07T22:25:56.170Z,-6.90
2018-02-07T22:28:23.850Z,-7.00
2018-02-07T22:30:51.892Z,-7.00
2018-02-07T22:33:19.585Z,-7.10
2018-02-07T22:35:49.296Z,-7.10
2018-02-07T22:38:17.768Z,-7.10
2018-02-07T22:40:45.807Z,-7.10
2018-02-07T22:43:13.929Z,-7.10
2018-02-07T22:45:42.393Z,-7.10
2018-02-07T22:48:11.824Z,-7.10
2018-02-07T22:50:41.459Z,-7.10
2018-02-07T22:53:09.489Z,-7.00
2018-02-07T22:55:38.481Z,-7.00
2018-02-07T22:58:07.633Z,-7.00
2018-02-07T23:00:36.187Z,-7.00
2018-02-07T23:03:05.157Z,-7.00
2018-02-07T23:05:33.229Z,-7.10
2018-02-07T23:08:02.269Z,-7.10
2018-02-07T23:10:30.633Z,-7.10
2018-02-07T23:12:59.079Z,-7.20
2018-02-07T23:15:27.873Z,-7.10
2018-02-07T23:17:55.984Z,-7.20
2018-02-07T23:20:26.424Z,-7.10
2018-02-07T23:22:55.165Z,-7.20
2018-02-07T23:25:22.764Z,-7.10
2018-02-07T23:27:50.949Z,-7.10
2018-02-07T23:30:19.174Z,-7.10
2018-02-07T23:32:48.477Z,-7.00
2018-02-07T23:35:16.241Z,-7.00
2018-02-07T23:37:43.817Z,-7.00
2018-02-07T23:40:11.416Z,-7.10
2018-02-07T23:42:39.756Z,-7.20
2018-02-07T23:45:07.367Z,-7.20
2018-02-07T23:47:34.938Z,-7.20
2018-02-07T23:50:02.548Z,-7.30
2018-02-07T23:52:30.109Z,-7.30
2018-02-07T23:54:57.709Z,-7.40
2018-02-07T23:57:29.413Z,-7.40
2018-02-07T23:59:57.048Z,-7.40
